sensor_id;sensor_type;location;lat;lon;timestamp;pressure;altitude;pressure_sealevel;temperature;humidity
22647;BME280;11490;42.726;23.268;2023-01-29T00:01:51;95353.00;;;1.08;100.00
22647;BME280;11490;42.726;23.268;2023-01-29T00:04:16;95338.91;;;1.01;100.00
22647;BME280;11490;42.726;23.268;2023-01-29T00:06:42;95326.16;;;0.98;100.00
22647;BME280;11490;42.726;23.268;2023-01-29T00:09:08;95329.53;;;1.06;100.00
22647;BME280;11490;42.726;23.268;2023-01-29T00:11:34;95344.88;;;0.95;100.00
22647;BME280;11490;42.726;23.268;2023-01-29T00:14:00;95338.25;;;0.84;100.00
22647;BME280;11490;42.726;23.268;2023-01-29T00:16:25;95360.19;;;0.91;100.00
22647;BME280;11490;42.726;23.268;2023-01-29T00:18:54;95350.06;;;0.80;100.00
22647;BME280;11490;42.726;23.268;2023-01-29T00:21:20;95346.84;;;0.70;100.00
22647;BME280;11490;42.726;23.268;2023-01-29T00:23:47;95342.94;;;0.66;100.00
22647;BME280;11490;42.726;23.268;2023-01-29T00:26:13;95336.75;;;0.59;100.00
22647;BME280;11490;42.726;23.268;2023-01-29T00:28:39;95359.53;;;0.89;100.00
22647;BME280;11490;42.726;23.268;2023-01-29T00:31:12;95346.22;;;0.91;100.00
22647;BME280;11490;42.726;23.268;2023-01-29T00:33:38;95319.25;;;0.51;100.00
22647;BME280;11490;42.726;23.268;2023-01-29T00:36:09;95336.13;;;0.80;100.00
22647;BME280;11490;42.726;23.268;2023-01-29T00:38:36;95364.66;;;1.05;100.00
22647;BME280;11490;42.726;23.268;2023-01-29T00:41:06;95374.75;;;1.16;100.00
22647;BME280;11490;42.726;23.268;2023-01-29T00:43:57;95369.81;;;0.99;100.00
22647;BME280;11490;42.726;23.268;2023-01-29T00:46:41;95343.78;;;0.89;100.00
22647;BME280;11490;42.726;23.268;2023-01-29T00:49:07;95323.38;;;0.76;100.00
22647;BME280;11490;42.726;23.268;2023-01-29T00:51:34;95338.41;;;0.83;100.00
22647;BME280;11490;42.726;23.268;2023-01-29T00:54:00;95349.84;;;0.90;100.00
22647;BME280;11490;42.726;23.268;2023-01-29T00:56:29;95349.34;;;0.86;100.00
22647;BME280;11490;42.726;23.268;2023-01-29T00:58:55;95363.13;;;0.88;100.00
22647;BME280;11490;42.726;23.268;2023-01-29T01:01:21;95357.06;;;0.88;100.00
22647;BME280;11490;42.726;23.268;2023-01-29T01:04:06;95335.94;;;0.81;100.00
22647;BME280;11490;42.726;23.268;2023-01-29T01:06:32;95323.34;;;0.54;100.00
22647;BME280;11490;42.726;23.268;2023-01-29T01:08:58;95298.75;;;0.47;100.00
22647;BME280;11490;42.726;23.268;2023-01-29T01:11:44;95350.66;;;0.90;100.00
22647;BME280;11490;42.726;23.268;2023-01-29T01:14:09;95352.22;;;0.76;100.00
22647;BME280;11490;42.726;23.268;2023-01-29T01:16:35;95337.16;;;0.39;100.00
22647;BME280;11490;42.726;23.268;2023-01-29T01:19:02;95368.25;;;0.59;100.00
22647;BME280;11490;42.726;23.268;2023-01-29T01:21:28;95328.59;;;0.54;100.00
22647;BME280;11490;42.726;23.268;2023-01-29T01:23:53;95259.03;;;0.04;100.00
22647;BME280;11490;42.726;23.268;2023-01-29T01:26:18;95313.28;;;0.34;100.00
22647;BME280;11490;42.726;23.268;2023-01-29T01:28:44;95331.50;;;0.59;100.00
22647;BME280;11490;42.726;23.268;2023-01-29T01:31:11;95322.00;;;0.27;100.00
22647;BME280;11490;42.726;23.268;2023-01-29T01:33:37;95354.84;;;0.54;100.00
22647;BME280;11490;42.726;23.268;2023-01-29T01:36:04;95294.50;;;0.23;100.00
22647;BME280;11490;42.726;23.268;2023-01-29T01:38:29;95338.69;;;0.65;100.00
22647;BME280;11490;42.726;23.268;2023-01-29T01:40:54;95348.19;;;0.66;100.00
22647;BME280;11490;42.726;23.268;2023-01-29T01:43:20;95334.78;;;0.61;100.00
22647;BME280;11490;42.726;23.268;2023-01-29T01:45:45;95295.66;;;0.20;100.00
22647;BME280;11490;42.726;23.268;2023-01-29T01:48:18;95310.94;;;0.39;100.00
22647;BME280;11490;42.726;23.268;2023-01-29T01:50:57;95370.13;;;0.73;100.00
22647;BME280;11490;42.726;23.268;2023-01-29T01:53:34;95323.06;;;0.41;100.00
22647;BME280;11490;42.726;23.268;2023-01-29T01:56:07;95360.38;;;0.59;100.00
22647;BME280;11490;42.726;23.268;2023-01-29T01:58:40;95367.38;;;0.66;100.00
22647;BME280;11490;42.726;23.268;2023-01-29T02:01:07;95353.59;;;0.64;100.00
22647;BME280;11490;42.726;23.268;2023-01-29T02:03:56;95358.69;;;0.66;100.00
22647;BME280;11490;42.726;23.268;2023-01-29T02:06:40;95344.34;;;0.54;100.00
22647;BME280;11490;42.726;23.268;2023-01-29T02:09:30;95312.81;;;0.31;100.00
22647;BME280;11490;42.726;23.268;2023-01-29T02:12:05;95335.44;;;0.55;100.00
22647;BME280;11490;42.726;23.268;2023-01-29T02:14:32;95333.03;;;0.53;100.00
22647;BME280;11490;42.726;23.268;2023-01-29T02:17:01;95333.63;;;0.55;100.00
22647;BME280;11490;42.726;23.268;2023-01-29T02:30:27;95340.75;;;0.47;100.00
22647;BME280;11490;42.726;23.268;2023-01-29T02:33:00;95375.31;;;0.81;100.00
22647;BME280;11490;42.726;23.268;2023-01-29T02:35:42;95343.31;;;0.55;100.00
22647;BME280;11490;42.726;23.268;2023-01-29T02:41:24;95387.06;;;0.93;100.00
22647;BME280;11490;42.726;23.268;2023-01-29T02:44:02;95353.19;;;0.53;100.00
22647;BME280;11490;42.726;23.268;2023-01-29T02:46:45;95380.97;;;0.70;100.00
22647;BME280;11490;42.726;23.268;2023-01-29T02:51:53;95363.31;;;0.56;100.00
22647;BME280;11490;42.726;23.268;2023-01-29T02:54:44;95375.13;;;0.60;100.00
22647;BME280;11490;42.726;23.268;2023-01-29T02:57:19;95357.75;;;0.59;100.00
22647;BME280;11490;42.726;23.268;2023-01-29T02:59:56;95377.31;;;0.48;100.00
22647;BME280;11490;42.726;23.268;2023-01-29T03:02:29;95359.75;;;0.49;100.00
22647;BME280;11490;42.726;23.268;2023-01-29T03:05:00;95333.97;;;0.29;100.00
22647;BME280;11490;42.726;23.268;2023-01-29T03:07:34;95385.25;;;0.63;100.00
22647;BME280;11490;42.726;23.268;2023-01-29T03:12:50;95385.81;;;0.50;100.00
22647;BME280;11490;42.726;23.268;2023-01-29T03:15:24;95384.31;;;0.56;100.00
22647;BME280;11490;42.726;23.268;2023-01-29T03:18:00;95395.69;;;0.79;100.00
22647;BME280;11490;42.726;23.268;2023-01-29T03:20:32;95342.28;;;0.33;100.00
22647;BME280;11490;42.726;23.268;2023-01-29T03:23:03;95406.25;;;0.63;100.00
22647;BME280;11490;42.726;23.268;2023-01-29T03:25:33;95376.16;;;0.51;100.00
22647;BME280;11490;42.726;23.268;2023-01-29T03:28:21;95352.66;;;0.26;100.00
22647;BME280;11490;42.726;23.268;2023-01-29T03:31:09;95392.56;;;0.53;100.00
22647;BME280;11490;42.726;23.268;2023-01-29T03:34:00;95388.91;;;0.62;100.00
22647;BME280;11490;42.726;23.268;2023-01-29T03:36:32;95395.13;;;0.61;100.00
22647;BME280;11490;42.726;23.268;2023-01-29T03:39:07;95410.47;;;0.72;100.00
22647;BME280;11490;42.726;23.268;2023-01-29T03:41:37;95339.50;;;0.34;100.00
22647;BME280;11490;42.726;23.268;2023-01-29T03:44:24;95389.28;;;0.51;100.00
22647;BME280;11490;42.726;23.268;2023-01-29T03:54:33;95385.88;;;0.42;100.00
22647;BME280;11490;42.726;23.268;2023-01-29T04:00:16;95361.63;;;0.32;100.00
22647;BME280;11490;42.726;23.268;2023-01-29T04:05:30;95399.41;;;0.62;100.00
22647;BME280;11490;42.726;23.268;2023-01-29T04:08:19;95389.94;;;0.53;100.00
22647;BME280;11490;42.726;23.268;2023-01-29T04:10:48;95364.75;;;0.35;100.00
22647;BME280;11490;42.726;23.268;2023-01-29T04:13:15;95361.16;;;0.36;100.00
22647;BME280;11490;42.726;23.268;2023-01-29T04:15:46;95377.19;;;0.42;100.00
22647;BME280;11490;42.726;23.268;2023-01-29T04:18:14;95392.97;;;0.64;100.00
22647;BME280;11490;42.726;23.268;2023-01-29T04:20:40;95365.69;;;0.43;100.00
22647;BME280;11490;42.726;23.268;2023-01-29T04:23:21;95383.03;;;0.52;100.00
22647;BME280;11490;42.726;23.268;2023-01-29T04:26:12;95342.84;;;0.20;100.00
22647;BME280;11490;42.726;23.268;2023-01-29T04:29:13;95423.66;;;0.64;100.00
22647;BME280;11490;42.726;23.268;2023-01-29T04:34:54;95431.28;;;0.82;100.00
22647;BME280;11490;42.726;23.268;2023-01-29T04:44:09;95418.59;;;0.54;100.00
22647;BME280;11490;42.726;23.268;2023-01-29T04:47:15;95366.78;;;0.17;100.00
22647;BME280;11490;42.726;23.268;2023-01-29T04:49:47;95430.41;;;0.58;100.00
22647;BME280;11490;42.726;23.268;2023-01-29T04:58:29;95427.63;;;0.60;100.00
22647;BME280;11490;42.726;23.268;2023-01-29T05:01:15;95316.13;;;-0.22;100.00
22647;BME280;11490;42.726;23.268;2023-01-29T05:03:45;95356.81;;;0.13;100.00
22647;BME280;11490;42.726;23.268;2023-01-29T05:06:15;95436.97;;;0.54;100.00
22647;BME280;11490;42.726;23.268;2023-01-29T05:08:43;95374.38;;;0.04;100.00
22647;BME280;11490;42.726;23.268;2023-01-29T05:11:10;95436.81;;;0.56;100.00
22647;BME280;11490;42.726;23.268;2023-01-29T05:13:42;95407.38;;;0.37;100.00
22647;BME280;11490;42.726;23.268;2023-01-29T05:16:26;95391.78;;;0.44;100.00
22647;BME280;11490;42.726;23.268;2023-01-29T05:18:58;95436.75;;;0.64;100.00
22647;BME280;11490;42.726;23.268;2023-01-29T05:24:58;95385.41;;;0.38;100.00
22647;BME280;11490;42.726;23.268;2023-01-29T05:27:31;95401.16;;;0.38;100.00
22647;BME280;11490;42.726;23.268;2023-01-29T05:36:11;95443.81;;;0.63;100.00
22647;BME280;11490;42.726;23.268;2023-01-29T05:38:40;95387.53;;;0.35;100.00
22647;BME280;11490;42.726;23.268;2023-01-29T05:41:05;95419.41;;;0.55;100.00
22647;BME280;11490;42.726;23.268;2023-01-29T05:43:30;95429.59;;;0.58;100.00
22647;BME280;11490;42.726;23.268;2023-01-29T05:45:58;95444.94;;;0.77;100.00
22647;BME280;11490;42.726;23.268;2023-01-29T05:48:25;95410.28;;;0.43;100.00
22647;BME280;11490;42.726;23.268;2023-01-29T05:50:52;95445.31;;;0.58;100.00
22647;BME280;11490;42.726;23.268;2023-01-29T05:53:18;95456.25;;;0.38;100.00
22647;BME280;11490;42.726;23.268;2023-01-29T05:55:45;95466.31;;;0.58;100.00
22647;BME280;11490;42.726;23.268;2023-01-29T05:58:11;95457.03;;;0.78;100.00
22647;BME280;11490;42.726;23.268;2023-01-29T06:00:36;95470.78;;;0.88;100.00
22647;BME280;11490;42.726;23.268;2023-01-29T06:03:02;95440.00;;;0.74;100.00
22647;BME280;11490;42.726;23.268;2023-01-29T06:05:36;95469.28;;;0.94;100.00
22647;BME280;11490;42.726;23.268;2023-01-29T06:08:06;95475.63;;;1.07;100.00
22647;BME280;11490;42.726;23.268;2023-01-29T06:11:06;95416.16;;;0.53;100.00
22647;BME280;11490;42.726;23.268;2023-01-29T06:13:50;95440.78;;;0.52;100.00
22647;BME280;11490;42.726;23.268;2023-01-29T06:16:18;95456.84;;;0.49;100.00
22647;BME280;11490;42.726;23.268;2023-01-29T06:18:44;95491.09;;;0.94;100.00
22647;BME280;11490;42.726;23.268;2023-01-29T06:21:12;95374.94;;;0.30;100.00
22647;BME280;11490;42.726;23.268;2023-01-29T06:24:04;95436.69;;;0.80;100.00
22647;BME280;11490;42.726;23.268;2023-01-29T06:26:37;95481.88;;;1.06;100.00
22647;BME280;11490;42.726;23.268;2023-01-29T06:29:06;95444.94;;;0.77;100.00
22647;BME280;11490;42.726;23.268;2023-01-29T06:31:31;95456.78;;;0.65;100.00
22647;BME280;11490;42.726;23.268;2023-01-29T06:33:57;95498.72;;;0.81;100.00
22647;BME280;11490;42.726;23.268;2023-01-29T06:36:22;95477.22;;;0.77;100.00
22647;BME280;11490;42.726;23.268;2023-01-29T06:38:47;95494.41;;;0.88;100.00
22647;BME280;11490;42.726;23.268;2023-01-29T06:41:16;95499.91;;;1.01;100.00
22647;BME280;11490;42.726;23.268;2023-01-29T06:43:45;95451.81;;;0.70;100.00
22647;BME280;11490;42.726;23.268;2023-01-29T06:46:12;95485.75;;;0.80;100.00
22647;BME280;11490;42.726;23.268;2023-01-29T06:48:37;95486.63;;;0.64;100.00
22647;BME280;11490;42.726;23.268;2023-01-29T06:51:05;95486.34;;;0.59;100.00
22647;BME280;11490;42.726;23.268;2023-01-29T06:53:32;95499.38;;;0.83;100.00
22647;BME280;11490;42.726;23.268;2023-01-29T06:55:57;95485.84;;;0.94;100.00
22647;BME280;11490;42.726;23.268;2023-01-29T06:58:23;95468.44;;;0.93;100.00
22647;BME280;11490;42.726;23.268;2023-01-29T07:00:52;95457.31;;;0.91;100.00
22647;BME280;11490;42.726;23.268;2023-01-29T07:03:17;95477.22;;;0.77;100.00
22647;BME280;11490;42.726;23.268;2023-01-29T07:05:56;95511.16;;;1.18;100.00
22647;BME280;11490;42.726;23.268;2023-01-29T07:08:22;95466.19;;;0.90;100.00
22647;BME280;11490;42.726;23.268;2023-01-29T07:10:48;95524.75;;;1.30;100.00
22647;BME280;11490;42.726;23.268;2023-01-29T07:13:14;95505.78;;;1.11;100.00
22647;BME280;11490;42.726;23.268;2023-01-29T07:15:39;95512.22;;;1.32;100.00
22647;BME280;11490;42.726;23.268;2023-01-29T07:18:05;95538.19;;;1.35;100.00
22647;BME280;11490;42.726;23.268;2023-01-29T07:20:37;95502.50;;;1.09;100.00
22647;BME280;11490;42.726;23.268;2023-01-29T07:23:03;95510.34;;;1.17;100.00
22647;BME280;11490;42.726;23.268;2023-01-29T07:25:28;95509.94;;;1.37;100.00
22647;BME280;11490;42.726;23.268;2023-01-29T07:27:55;95498.72;;;1.43;100.00
22647;BME280;11490;42.726;23.268;2023-01-29T07:30:21;95516.81;;;1.38;100.00
22647;BME280;11490;42.726;23.268;2023-01-29T07:32:46;95515.41;;;0.88;100.00
22647;BME280;11490;42.726;23.268;2023-01-29T07:35:12;95505.09;;;0.78;100.00
22647;BME280;11490;42.726;23.268;2023-01-29T07:37:37;95517.75;;;0.83;100.00
22647;BME280;11490;42.726;23.268;2023-01-29T07:40:04;95499.03;;;0.78;100.00
22647;BME280;11490;42.726;23.268;2023-01-29T07:42:34;95528.94;;;1.16;100.00
22647;BME280;11490;42.726;23.268;2023-01-29T07:45:03;95509.75;;;1.07;100.00
22647;BME280;11490;42.726;23.268;2023-01-29T07:47:40;95484.34;;;0.69;100.00
22647;BME280;11490;42.726;23.268;2023-01-29T07:50:23;95505.16;;;1.01;100.00
22647;BME280;11490;42.726;23.268;2023-01-29T07:52:55;95496.38;;;0.86;100.00
22647;BME280;11490;42.726;23.268;2023-01-29T07:55:29;95502.38;;;1.03;100.00
22647;BME280;11490;42.726;23.268;2023-01-29T07:58:08;95564.41;;;1.43;100.00
22647;BME280;11490;42.726;23.268;2023-01-29T08:00:34;95568.69;;;1.44;100.00
22647;BME280;11490;42.726;23.268;2023-01-29T08:03:10;95573.28;;;1.42;100.00
22647;BME280;11490;42.726;23.268;2023-01-29T08:05:56;95567.53;;;1.46;100.00
22647;BME280;11490;42.726;23.268;2023-01-29T08:09:11;95450.50;;;0.74;100.00
22647;BME280;11490;42.726;23.268;2023-01-29T08:11:50;95575.81;;;1.58;100.00
22647;BME280;11490;42.726;23.268;2023-01-29T08:14:33;95513.38;;;1.06;100.00
22647;BME280;11490;42.726;23.268;2023-01-29T08:17:01;95580.44;;;1.56;100.00
22647;BME280;11490;42.726;23.268;2023-01-29T08:19:37;95578.78;;;1.55;100.00
22647;BME280;11490;42.726;23.268;2023-01-29T08:22:03;95556.78;;;1.56;100.00
22647;BME280;11490;42.726;23.268;2023-01-29T08:24:28;95507.69;;;1.26;100.00
22647;BME280;11490;42.726;23.268;2023-01-29T08:27:06;95531.66;;;1.31;100.00
22647;BME280;11490;42.726;23.268;2023-01-29T08:29:40;95533.16;;;1.48;100.00
22647;BME280;11490;42.726;23.268;2023-01-29T08:32:10;95567.31;;;1.79;100.00
22647;BME280;11490;42.726;23.268;2023-01-29T08:34:36;95499.59;;;1.04;100.00
22647;BME280;11490;42.726;23.268;2023-01-29T08:37:04;95543.75;;;1.32;100.00
22647;BME280;11490;42.726;23.268;2023-01-29T08:39:30;95576.97;;;1.55;100.00
22647;BME280;11490;42.726;23.268;2023-01-29T08:41:58;95583.34;;;1.69;100.00
22647;BME280;11490;42.726;23.268;2023-01-29T08:44:24;95562.22;;;1.54;100.00
22647;BME280;11490;42.726;23.268;2023-01-29T08:46:49;95593.25;;;1.59;100.00
22647;BME280;11490;42.726;23.268;2023-01-29T08:49:14;95579.44;;;1.57;100.00
22647;BME280;11490;42.726;23.268;2023-01-29T08:51:40;95532.91;;;1.35;100.00
22647;BME280;11490;42.726;23.268;2023-01-29T08:54:17;95506.78;;;1.10;100.00
22647;BME280;11490;42.726;23.268;2023-01-29T08:56:42;95600.97;;;1.83;100.00
22647;BME280;11490;42.726;23.268;2023-01-29T08:59:09;95572.09;;;1.75;100.00
22647;BME280;11490;42.726;23.268;2023-01-29T09:01:34;95569.75;;;1.80;100.00
22647;BME280;11490;42.726;23.268;2023-01-29T09:03:59;95603.13;;;2.03;100.00
22647;BME280;11490;42.726;23.268;2023-01-29T09:06:25;95597.94;;;1.94;100.00
22647;BME280;11490;42.726;23.268;2023-01-29T09:08:53;95592.44;;;1.81;100.00
22647;BME280;11490;42.726;23.268;2023-01-29T09:11:24;95553.47;;;1.31;100.00
22647;BME280;11490;42.726;23.268;2023-01-29T09:13:56;95573.19;;;1.58;100.00
22647;BME280;11490;42.726;23.268;2023-01-29T09:16:22;95582.63;;;1.75;100.00
22647;BME280;11490;42.726;23.268;2023-01-29T09:18:47;95544.03;;;1.45;100.00
22647;BME280;11490;42.726;23.268;2023-01-29T09:21:13;95520.19;;;1.24;100.00
22647;BME280;11490;42.726;23.268;2023-01-29T09:23:38;95615.47;;;1.79;100.00
22647;BME280;11490;42.726;23.268;2023-01-29T09:26:06;95562.63;;;1.66;100.00
22647;BME280;11490;42.726;23.268;2023-01-29T09:28:34;95592.09;;;1.84;100.00
22647;BME280;11490;42.726;23.268;2023-01-29T09:31:00;95591.75;;;1.87;100.00
22647;BME280;11490;42.726;23.268;2023-01-29T09:33:29;95544.78;;;1.84;100.00
22647;BME280;11490;42.726;23.268;2023-01-29T09:35:55;95497.03;;;1.50;100.00
22647;BME280;11490;42.726;23.268;2023-01-29T09:38:24;95538.22;;;1.80;100.00
22647;BME280;11490;42.726;23.268;2023-01-29T09:43:52;95570.75;;;2.02;100.00
22647;BME280;11490;42.726;23.268;2023-01-29T09:46:24;95590.91;;;2.10;100.00
22647;BME280;11490;42.726;23.268;2023-01-29T09:49:03;95581.88;;;2.12;100.00
22647;BME280;11490;42.726;23.268;2023-01-29T09:51:45;95553.28;;;1.86;100.00
22647;BME280;11490;42.726;23.268;2023-01-29T09:56:55;95538.78;;;1.45;100.00
22647;BME280;11490;42.726;23.268;2023-01-29T09:59:22;95566.94;;;1.59;100.00
22647;BME280;11490;42.726;23.268;2023-01-29T10:17:29;95556.66;;;1.49;100.00
22647;BME280;11490;42.726;23.268;2023-01-29T10:23:17;95557.72;;;1.86;100.00
22647;BME280;11490;42.726;23.268;2023-01-29T10:25:46;95543.03;;;1.77;100.00
22647;BME280;11490;42.726;23.268;2023-01-29T10:28:39;95563.84;;;1.78;100.00
22647;BME280;11490;42.726;23.268;2023-01-29T10:31:12;95534.91;;;1.33;100.00
22647;BME280;11490;42.726;23.268;2023-01-29T10:33:42;95562.41;;;1.76;100.00
22647;BME280;11490;42.726;23.268;2023-01-29T10:36:12;95547.78;;;1.73;100.00
22647;BME280;11490;42.726;23.268;2023-01-29T10:38:43;95513.22;;;1.39;100.00
22647;BME280;11490;42.726;23.268;2023-01-29T10:43:51;95509.38;;;1.19;100.00
22647;BME280;11490;42.726;23.268;2023-01-29T10:49:17;95559.00;;;1.67;100.00
22647;BME280;11490;42.726;23.268;2023-01-29T10:58:00;95543.53;;;1.72;100.00
22647;BME280;11490;42.726;23.268;2023-01-29T11:00:34;95505.00;;;1.34;100.00
22647;BME280;11490;42.726;23.268;2023-01-29T11:03:12;95553.53;;;1.54;100.00
22647;BME280;11490;42.726;23.268;2023-01-29T11:06:32;95550.56;;;1.49;100.00
22647;BME280;11490;42.726;23.268;2023-01-29T11:11:46;95540.56;;;1.75;100.00
22647;BME280;11490;42.726;23.268;2023-01-29T11:16:48;95523.47;;;1.71;100.00
22647;BME280;11490;42.726;23.268;2023-01-29T11:19:14;95505.38;;;1.76;100.00
22647;BME280;11490;42.726;23.268;2023-01-29T11:21:57;95526.75;;;1.73;100.00
22647;BME280;11490;42.726;23.268;2023-01-29T11:24:24;95492.56;;;1.28;100.00
22647;BME280;11490;42.726;23.268;2023-01-29T11:26:51;95519.31;;;1.62;100.00
22647;BME280;11490;42.726;23.268;2023-01-29T11:31:52;95469.16;;;1.41;100.00
22647;BME280;11490;42.726;23.268;2023-01-29T11:34:21;95501.50;;;1.64;100.00
22647;BME280;11490;42.726;23.268;2023-01-29T11:36:59;95506.00;;;1.78;100.00
22647;BME280;11490;42.726;23.268;2023-01-29T11:39:26;95464.84;;;1.48;100.00
22647;BME280;11490;42.726;23.268;2023-01-29T11:41:56;95449.53;;;1.51;100.00
22647;BME280;11490;42.726;23.268;2023-01-29T11:44:28;95460.88;;;1.52;100.00
22647;BME280;11490;42.726;23.268;2023-01-29T11:49:55;95471.72;;;1.49;100.00
22647;BME280;11490;42.726;23.268;2023-01-29T11:52:23;95509.16;;;1.97;100.00
22647;BME280;11490;42.726;23.268;2023-01-29T11:55:04;95466.84;;;1.46;100.00
22647;BME280;11490;42.726;23.268;2023-01-29T11:57:40;95504.19;;;2.02;100.00
22647;BME280;11490;42.726;23.268;2023-01-29T12:00:16;95506.25;;;2.29;100.00
22647;BME280;11490;42.726;23.268;2023-01-29T12:02:52;95509.28;;;2.18;100.00
22647;BME280;11490;42.726;23.268;2023-01-29T12:05:21;95452.78;;;2.14;100.00
22647;BME280;11490;42.726;23.268;2023-01-29T12:07:50;95479.19;;;2.35;100.00
22647;BME280;11490;42.726;23.268;2023-01-29T12:13:24;95470.28;;;2.07;100.00
22647;BME280;11490;42.726;23.268;2023-01-29T12:16:05;95456.66;;;2.18;100.00
22647;BME280;11490;42.726;23.268;2023-01-29T12:18:38;95446.53;;;2.15;100.00
22647;BME280;11490;42.726;23.268;2023-01-29T12:21:34;95500.25;;;2.35;100.00
22647;BME280;11490;42.726;23.268;2023-01-29T12:24:10;95444.97;;;2.06;100.00
22647;BME280;11490;42.726;23.268;2023-01-29T12:26:48;95489.47;;;2.59;100.00
22647;BME280;11490;42.726;23.268;2023-01-29T12:34:49;95463.78;;;2.61;98.35
22647;BME280;11490;42.726;23.268;2023-01-29T12:37:28;95469.31;;;2.52;98.63
22647;BME280;11490;42.726;23.268;2023-01-29T12:39:56;95500.78;;;3.04;98.41
22647;BME280;11490;42.726;23.268;2023-01-29T12:42:23;95490.84;;;2.85;97.77
22647;BME280;11490;42.726;23.268;2023-01-29T12:45:00;95446.63;;;2.65;96.81
22647;BME280;11490;42.726;23.268;2023-01-29T12:50:04;95441.09;;;2.60;95.98
22647;BME280;11490;42.726;23.268;2023-01-29T12:52:47;95496.91;;;3.00;96.37
22647;BME280;11490;42.726;23.268;2023-01-29T12:55:20;95453.06;;;2.48;96.91
22647;BME280;11490;42.726;23.268;2023-01-29T12:57:56;95469.59;;;2.42;97.95
22647;BME280;11490;42.726;23.268;2023-01-29T13:00:25;95468.69;;;2.35;97.88
22647;BME280;11490;42.726;23.268;2023-01-29T13:03:02;95468.22;;;2.31;99.20
22647;BME280;11490;42.726;23.268;2023-01-29T13:05:49;95460.81;;;1.98;100.00
22647;BME280;11490;42.726;23.268;2023-01-29T13:08:34;95490.44;;;2.29;100.00
22647;BME280;11490;42.726;23.268;2023-01-29T13:11:07;95477.22;;;2.37;99.59
22647;BME280;11490;42.726;23.268;2023-01-29T13:13:54;95472.59;;;2.39;99.66
22647;BME280;11490;42.726;23.268;2023-01-29T13:16:24;95451.03;;;1.91;100.00
22647;BME280;11490;42.726;23.268;2023-01-29T13:19:27;95447.69;;;1.98;100.00
22647;BME280;11490;42.726;23.268;2023-01-29T13:22:02;95503.84;;;2.05;100.00
22647;BME280;11490;42.726;23.268;2023-01-29T13:24:41;95432.47;;;1.70;100.00
22647;BME280;11490;42.726;23.268;2023-01-29T13:27:17;95483.25;;;2.08;99.72
22647;BME280;11490;42.726;23.268;2023-01-29T13:29:44;95481.72;;;2.14;100.00
22647;BME280;11490;42.726;23.268;2023-01-29T13:32:09;95483.38;;;2.15;99.80
22647;BME280;11490;42.726;23.268;2023-01-29T13:38:19;95511.19;;;2.61;96.64
22647;BME280;11490;42.726;23.268;2023-01-29T13:40:48;95488.31;;;2.47;96.46
22647;BME280;11490;42.726;23.268;2023-01-29T13:43:21;95455.59;;;2.27;96.30
22647;BME280;11490;42.726;23.268;2023-01-29T13:45:48;95478.28;;;2.28;96.64
22647;BME280;11490;42.726;23.268;2023-01-29T13:48:26;95498.72;;;2.41;97.05
22647;BME280;11490;42.726;23.268;2023-01-29T13:50:54;95497.25;;;2.23;96.74
22647;BME280;11490;42.726;23.268;2023-01-29T13:53:26;95517.53;;;2.52;96.44
22647;BME280;11490;42.726;23.268;2023-01-29T13:55:53;95505.91;;;2.32;96.37
22647;BME280;11490;42.726;23.268;2023-01-29T14:00:57;95459.44;;;1.87;96.85
22647;BME280;11490;42.726;23.268;2023-01-29T14:06:00;95492.69;;;2.17;97.21
22647;BME280;11490;42.726;23.268;2023-01-29T14:08:36;95505.31;;;2.22;97.18
22647;BME280;11490;42.726;23.268;2023-01-29T14:13:46;95493.22;;;1.98;97.34
22647;BME280;11490;42.726;23.268;2023-01-29T14:19:03;95511.78;;;1.97;98.78
22647;BME280;11490;42.726;23.268;2023-01-29T14:21:31;95512.16;;;1.93;99.02
22647;BME280;11490;42.726;23.268;2023-01-29T14:24:07;95526.97;;;1.86;98.94
22647;BME280;11490;42.726;23.268;2023-01-29T14:26:41;95531.91;;;1.89;99.19
22647;BME280;11490;42.726;23.268;2023-01-29T14:34:22;95555.41;;;1.68;100.00
22647;BME280;11490;42.726;23.268;2023-01-29T14:36:50;95510.28;;;1.57;100.00
22647;BME280;11490;42.726;23.268;2023-01-29T14:39:41;95548.63;;;1.97;100.00
22647;BME280;11490;42.726;23.268;2023-01-29T14:42:20;95499.81;;;1.71;100.00
22647;BME280;11490;42.726;23.268;2023-01-29T14:44:55;95543.13;;;1.83;100.00
22647;BME280;11490;42.726;23.268;2023-01-29T14:52:23;95508.25;;;1.44;100.00
22647;BME280;11490;42.726;23.268;2023-01-29T14:54:52;95515.31;;;1.66;100.00
22647;BME280;11490;42.726;23.268;2023-01-29T14:57:18;95540.66;;;1.82;100.00
22647;BME280;11490;42.726;23.268;2023-01-29T15:02:23;95538.22;;;1.80;100.00
22647;BME280;11490;42.726;23.268;2023-01-29T15:04:57;95517.41;;;1.71;100.00
22647;BME280;11490;42.726;23.268;2023-01-29T15:07:32;95519.91;;;1.64;100.00
22647;BME280;11490;42.726;23.268;2023-01-29T15:10:07;95520.44;;;1.37;100.00
22647;BME280;11490;42.726;23.268;2023-01-29T15:13:03;95495.91;;;1.22;100.00
22647;BME280;11490;42.726;23.268;2023-01-29T15:15:41;95531.91;;;1.67;100.00
22647;BME280;11490;42.726;23.268;2023-01-29T15:18:13;95502.44;;;1.26;100.00
22647;BME280;11490;42.726;23.268;2023-01-29T15:20:42;95548.06;;;1.78;100.00
22647;BME280;11490;42.726;23.268;2023-01-29T15:23:31;95511.75;;;1.59;100.00
22647;BME280;11490;42.726;23.268;2023-01-29T15:26:03;95570.69;;;1.87;100.00
22647;BME280;11490;42.726;23.268;2023-01-29T15:28:30;95547.78;;;1.73;100.00
22647;BME280;11490;42.726;23.268;2023-01-29T15:30:57;95554.97;;;1.79;100.00
22647;BME280;11490;42.726;23.268;2023-01-29T15:33:24;95544.72;;;1.70;100.00
22647;BME280;11490;42.726;23.268;2023-01-29T15:35:58;95546.28;;;1.79;100.00
22647;BME280;11490;42.726;23.268;2023-01-29T15:38:33;95532.72;;;1.67;100.00
22647;BME280;11490;42.726;23.268;2023-01-29T15:41:24;95562.28;;;1.69;100.00